sensor_id;sensor_type;location;lat;lon;timestamp;pressure;altitude;pressure_sealevel;temperature;humidity
12247;BME280;6186;52.022;4.692;2023-04-02T00:01:44;101382.03;;;8.35;100.00
12247;BME280;6186;52.022;4.692;2023-04-02T00:06:40;101385.53;;;8.34;100.00
12247;BME280;6186;52.022;4.692;2023-04-02T00:11:39;101394.28;;;8.33;100.00
12247;BME280;6186;52.022;4.692;2023-04-02T00:14:14;101402.16;;;8.33;100.00
12247;BME280;6186;52.022;4.692;2023-04-02T00:16:40;101410.91;;;8.32;100.00
12247;BME280;6186;52.022;4.692;2023-04-02T00:19:10;101408.25;;;8.33;100.00
12247;BME280;6186;52.022;4.692;2023-04-02T00:21:37;101407.41;;;8.30;100.00
12247;BME280;6186;52.022;4.692;2023-04-02T00:24:13;101411.81;;;8.28;100.00
12247;BME280;6186;52.022;4.692;2023-04-02T00:26:43;101416.19;;;8.26;100.00
12247;BME280;6186;52.022;4.692;2023-04-02T00:29:11;101424.91;;;8.22;100.00
12247;BME280;6186;52.022;4.692;2023-04-02T00:31:40;101420.56;;;8.18;100.00
12247;BME280;6186;52.022;4.692;2023-04-02T00:34:11;101439.78;;;8.20;100.00
12247;BME280;6186;52.022;4.692;2023-04-02T00:36:39;101438.94;;;8.19;100.00
12247;BME280;6186;52.022;4.692;2023-04-02T00:39:12;101435.44;;;8.16;100.00
12247;BME280;6186;52.022;4.692;2023-04-02T00:41:39;101445.06;;;8.12;100.00
12247;BME280;6186;52.022;4.692;2023-04-02T00:44:12;101450.31;;;8.12;100.00
12247;BME280;6186;52.022;4.692;2023-04-02T00:46:41;101452.09;;;8.13;100.00
12247;BME280;6186;52.022;4.692;2023-04-02T00:49:31;101457.34;;;8.09;100.00
12247;BME280;6186;52.022;4.692;2023-04-02T00:52:02;101461.72;;;8.07;100.00
12247;BME280;6186;52.022;4.692;2023-04-02T00:54:31;101464.34;;;8.01;100.00
12247;BME280;6186;52.022;4.692;2023-04-02T00:57:01;101471.38;;;8.00;100.00
12247;BME280;6186;52.022;4.692;2023-04-02T01:04:41;101488.84;;;7.97;100.00
12247;BME280;6186;52.022;4.692;2023-04-02T01:07:16;101485.34;;;7.98;100.00
12247;BME280;6186;52.022;4.692;2023-04-02T01:10:04;101491.47;;;7.95;100.00
12247;BME280;6186;52.022;4.692;2023-04-02T01:15:26;101503.72;;;7.95;100.00
12247;BME280;6186;52.022;4.692;2023-04-02T01:18:10;101502.88;;;7.93;100.00
12247;BME280;6186;52.022;4.692;2023-04-02T01:23:56;101530.84;;;7.91;100.00
12247;BME280;6186;52.022;4.692;2023-04-02T01:29:30;101534.34;;;7.87;100.00
12247;BME280;6186;52.022;4.692;2023-04-02T01:32:04;101535.22;;;7.81;100.00
12247;BME280;6186;52.022;4.692;2023-04-02T01:34:32;101527.38;;;7.77;100.00
12247;BME280;6186;52.022;4.692;2023-04-02T01:45:24;101544.00;;;7.68;100.00
12247;BME280;6186;52.022;4.692;2023-04-02T01:47:49;101547.50;;;7.59;100.00
12247;BME280;6186;52.022;4.692;2023-04-02T01:52:45;101563.19;;;7.67;100.00
12247;BME280;6186;52.022;4.692;2023-04-02T01:55:16;101561.47;;;7.66;100.00
12247;BME280;6186;52.022;4.692;2023-04-02T01:57:46;101575.44;;;7.65;100.00
12247;BME280;6186;52.022;4.692;2023-04-02T02:00:15;101577.16;;;7.63;100.00
12247;BME280;6186;52.022;4.692;2023-04-02T02:02:42;101585.03;;;7.61;100.00
12247;BME280;6186;52.022;4.692;2023-04-02T02:05:13;101584.19;;;7.58;100.00
12247;BME280;6186;52.022;4.692;2023-04-02T02:07:40;101588.56;;;7.54;100.00
12247;BME280;6186;52.022;4.692;2023-04-02T02:10:09;101584.19;;;7.50;100.00
12247;BME280;6186;52.022;4.692;2023-04-02T02:12:37;101592.06;;;7.49;100.00
12247;BME280;6186;52.022;4.692;2023-04-02T02:15:03;101601.63;;;7.51;100.00
12247;BME280;6186;52.022;4.692;2023-04-02T02:17:30;101604.25;;;7.48;100.00
12247;BME280;6186;52.022;4.692;2023-04-02T02:19:59;101592.94;;;7.43;100.00
12247;BME280;6186;52.022;4.692;2023-04-02T02:22:32;101612.13;;;7.48;100.00
12247;BME280;6186;52.022;4.692;2023-04-02T02:25:02;101611.25;;;7.48;100.00
12247;BME280;6186;52.022;4.692;2023-04-02T02:30:24;101623.47;;;7.41;100.00
12247;BME280;6186;52.022;4.692;2023-04-02T02:35:36;101633.94;;;7.38;100.00
12247;BME280;6186;52.022;4.692;2023-04-02T02:40:47;101641.81;;;7.37;100.00
12247;BME280;6186;52.022;4.692;2023-04-02T02:43:16;101646.16;;;7.35;100.00
12247;BME280;6186;52.022;4.692;2023-04-02T02:45:44;101647.91;;;7.33;100.00
12247;BME280;6186;52.022;4.692;2023-04-02T02:48:14;101654.03;;;7.30;100.00
12247;BME280;6186;52.022;4.692;2023-04-02T02:50:43;101659.25;;;7.29;100.00
12247;BME280;6186;52.022;4.692;2023-04-02T02:53:16;101664.50;;;7.27;100.00
12247;BME280;6186;52.022;4.692;2023-04-02T02:55:44;101661.88;;;7.26;100.00
12247;BME280;6186;52.022;4.692;2023-04-02T02:58:28;101677.59;;;7.24;100.00
12247;BME280;6186;52.022;4.692;2023-04-02T03:00:56;101680.22;;;7.23;100.00
12247;BME280;6186;52.022;4.692;2023-04-02T03:03:29;101688.03;;;7.20;100.00
12247;BME280;6186;52.022;4.692;2023-04-02T03:06:08;101668.84;;;7.13;100.00
12247;BME280;6186;52.022;4.692;2023-04-02T03:08:37;101685.44;;;7.15;100.00
12247;BME280;6186;52.022;4.692;2023-04-02T03:13:42;101692.41;;;7.13;100.00
12247;BME280;6186;52.022;4.692;2023-04-02T03:16:13;101703.75;;;7.15;100.00
12247;BME280;6186;52.022;4.692;2023-04-02T03:18:47;101708.97;;;7.12;100.00
12247;BME280;6186;52.022;4.692;2023-04-02T03:21:38;101715.97;;;7.13;100.00
12247;BME280;6186;52.022;4.692;2023-04-02T03:24:16;101722.06;;;7.09;100.00
12247;BME280;6186;52.022;4.692;2023-04-02T03:26:57;101726.41;;;7.07;100.00
12247;BME280;6186;52.022;4.692;2023-04-02T03:29:30;101735.13;;;7.06;100.00
12247;BME280;6186;52.022;4.692;2023-04-02T03:32:13;101737.75;;;7.05;100.00
12247;BME280;6186;52.022;4.692;2023-04-02T03:34:48;101742.97;;;7.05;100.00
12247;BME280;6186;52.022;4.692;2023-04-02T03:37:32;101746.47;;;7.04;100.00
12247;BME280;6186;52.022;4.692;2023-04-02T03:40:14;101735.13;;;7.03;100.00
12247;BME280;6186;52.022;4.692;2023-04-02T03:42:47;101753.44;;;7.06;100.00
12247;BME280;6186;52.022;4.692;2023-04-02T03:45:21;101756.94;;;7.05;100.00
12247;BME280;6186;52.022;4.692;2023-04-02T03:50:30;101776.13;;;7.04;100.00
12247;BME280;6186;52.022;4.692;2023-04-02T03:52:59;101775.22;;;7.02;100.00
12247;BME280;6186;52.022;4.692;2023-04-02T03:55:29;101790.94;;;7.02;100.00
12247;BME280;6186;52.022;4.692;2023-04-02T03:58:19;101791.84;;;7.06;100.00
12247;BME280;6186;52.022;4.692;2023-04-02T04:01:04;101805.78;;;7.06;100.00
12247;BME280;6186;52.022;4.692;2023-04-02T04:06:06;101830.19;;;6.98;100.00
12247;BME280;6186;52.022;4.692;2023-04-02T04:08:42;101824.03;;;6.91;100.00
12247;BME280;6186;52.022;4.692;2023-04-02T04:11:13;101818.81;;;6.88;100.00
12247;BME280;6186;52.022;4.692;2023-04-02T04:13:49;101822.28;;;6.87;100.00
12247;BME280;6186;52.022;4.692;2023-04-02T04:16:48;101826.66;;;6.87;100.00
12247;BME280;6186;52.022;4.692;2023-04-02T04:19:51;101827.50;;;6.84;100.00
12247;BME280;6186;52.022;4.692;2023-04-02T04:22:24;101847.53;;;6.81;100.00
12247;BME280;6186;52.022;4.692;2023-04-02T04:24:58;101848.38;;;6.78;100.00
12247;BME280;6186;52.022;4.692;2023-04-02T04:27:47;101858.84;;;6.74;100.00
12247;BME280;6186;52.022;4.692;2023-04-02T04:30:30;101864.91;;;6.70;100.00
12247;BME280;6186;52.022;4.692;2023-04-02T04:33:12;101864.03;;;6.66;100.00
12247;BME280;6186;52.022;4.692;2023-04-02T04:35:45;101881.41;;;6.61;100.00
12247;BME280;6186;52.022;4.692;2023-04-02T04:38:28;101880.50;;;6.57;100.00
12247;BME280;6186;52.022;4.692;2023-04-02T04:41:18;101883.97;;;6.53;100.00
12247;BME280;6186;52.022;4.692;2023-04-02T04:44:24;101889.19;;;6.50;100.00
12247;BME280;6186;52.022;4.692;2023-04-02T04:47:00;101892.66;;;6.49;100.00
12247;BME280;6186;52.022;4.692;2023-04-02T04:50:02;101893.47;;;6.44;100.00
12247;BME280;6186;52.022;4.692;2023-04-02T04:52:25;101908.25;;;6.39;100.00
12247;BME280;6186;52.022;4.692;2023-04-02T04:54:51;101906.47;;;6.36;100.00
12247;BME280;6186;52.022;4.692;2023-04-02T04:57:24;101916.03;;;6.33;100.00
12247;BME280;6186;52.022;4.692;2023-04-02T04:59:58;101909.91;;;6.29;100.00
12247;BME280;6186;52.022;4.692;2023-04-02T05:02:37;101919.53;;;6.32;100.00
12247;BME280;6186;52.022;4.692;2023-04-02T05:05:15;101924.75;;;6.32;100.00
12247;BME280;6186;52.022;4.692;2023-04-02T05:07:48;101930.81;;;6.29;100.00
12247;BME280;6186;52.022;4.692;2023-04-02T05:10:29;101941.22;;;6.25;100.00
12247;BME280;6186;52.022;4.692;2023-04-02T05:13:08;101945.56;;;6.23;100.00
12247;BME280;6186;52.022;4.692;2023-04-02T05:15:44;101943.81;;;6.22;100.00
12247;BME280;6186;52.022;4.692;2023-04-02T05:20:51;101955.09;;;6.16;100.00
12247;BME280;6186;52.022;4.692;2023-04-02T05:23:25;101958.59;;;6.18;100.00
12247;BME280;6186;52.022;4.692;2023-04-02T05:31:30;101979.47;;;6.14;100.00
12247;BME280;6186;52.022;4.692;2023-04-02T05:34:02;101971.50;;;6.03;100.00
12247;BME280;6186;52.022;4.692;2023-04-02T05:36:29;101992.50;;;6.11;100.00
12247;BME280;6186;52.022;4.692;2023-04-02T05:38:56;101995.97;;;6.10;100.00
12247;BME280;6186;52.022;4.692;2023-04-02T05:41:25;101998.56;;;6.08;100.00
12247;BME280;6186;52.022;4.692;2023-04-02T05:44:30;102011.66;;;6.10;100.00
12247;BME280;6186;52.022;4.692;2023-04-02T05:47:12;102023.81;;;6.08;100.00
12247;BME280;6186;52.022;4.692;2023-04-02T05:52:06;102026.38;;;6.03;100.00
12247;BME280;6186;52.022;4.692;2023-04-02T05:54:42;102046.41;;;6.03;100.00
12247;BME280;6186;52.022;4.692;2023-04-02T05:57:16;102049.84;;;5.97;100.00
12247;BME280;6186;52.022;4.692;2023-04-02T05:59:50;102050.63;;;5.92;100.00
12247;BME280;6186;52.022;4.692;2023-04-02T06:02:35;102061.88;;;5.85;100.00
12247;BME280;6186;52.022;4.692;2023-04-02T06:05:06;102066.16;;;5.83;100.00
12247;BME280;6186;52.022;4.692;2023-04-02T06:07:44;102066.09;;;5.80;100.00
12247;BME280;6186;52.022;4.692;2023-04-02T06:10:15;102076.44;;;5.73;100.00
12247;BME280;6186;52.022;4.692;2023-04-02T06:12:50;102086.84;;;5.67;100.00
12247;BME280;6186;52.022;4.692;2023-04-02T06:15:21;102090.16;;;5.57;100.00
12247;BME280;6186;52.022;4.692;2023-04-02T06:17:52;102095.38;;;5.57;100.00
12247;BME280;6186;52.022;4.692;2023-04-02T06:20:22;102108.31;;;5.48;100.00
12247;BME280;6186;52.022;4.692;2023-04-02T06:22:52;102115.97;;;5.39;100.00
12247;BME280;6186;52.022;4.692;2023-04-02T06:25:24;102128.94;;;5.33;100.00
12247;BME280;6186;52.022;4.692;2023-04-02T06:27:53;102127.06;;;5.26;100.00
12247;BME280;6186;52.022;4.692;2023-04-02T06:30:32;102140.09;;;5.25;100.00
12247;BME280;6186;52.022;4.692;2023-04-02T06:32:59;102136.38;;;5.11;100.00
12247;BME280;6186;52.022;4.692;2023-04-02T06:35:24;102142.38;;;5.05;100.00
12247;BME280;6186;52.022;4.692;2023-04-02T06:37:52;102149.34;;;5.06;100.00
12247;BME280;6186;52.022;4.692;2023-04-02T06:40:54;102152.84;;;5.07;100.00
12247;BME280;6186;52.022;4.692;2023-04-02T06:45:58;102166.66;;;5.01;100.00
12247;BME280;6186;52.022;4.692;2023-04-02T06:48:28;102167.56;;;5.03;100.00
12247;BME280;6186;52.022;4.692;2023-04-02T06:50:58;102171.91;;;5.04;100.00
12247;BME280;6186;52.022;4.692;2023-04-02T06:53:35;102174.41;;;4.98;100.00
12247;BME280;6186;52.022;4.692;2023-04-02T06:58:35;102189.16;;;4.96;100.00
12247;BME280;6186;52.022;4.692;2023-04-02T07:01:00;102194.28;;;4.90;100.00
12247;BME280;6186;52.022;4.692;2023-04-02T07:03:28;102196.81;;;4.87;100.00
12247;BME280;6186;52.022;4.692;2023-04-02T07:05:54;102195.91;;;4.85;100.00
12247;BME280;6186;52.022;4.692;2023-04-02T07:08:20;102202.09;;;4.90;100.00
12247;BME280;6186;52.022;4.692;2023-04-02T07:10:46;102209.09;;;4.94;100.00
12247;BME280;6186;52.022;4.692;2023-04-02T07:13:17;102213.53;;;4.98;100.00
12247;BME280;6186;52.022;4.692;2023-04-02T07:15:48;102222.25;;;4.97;100.00
12247;BME280;6186;52.022;4.692;2023-04-02T07:18:23;102227.44;;;4.96;100.00
12247;BME280;6186;52.022;4.692;2023-04-02T07:20:50;102230.91;;;4.96;100.00
12247;BME280;6186;52.022;4.692;2023-04-02T07:23:15;102235.31;;;5.00;100.00
12247;BME280;6186;52.022;4.692;2023-04-02T07:25:40;102248.50;;;5.06;100.00
12247;BME280;6186;52.022;4.692;2023-04-02T07:28:06;102250.31;;;5.10;100.00
12247;BME280;6186;52.022;4.692;2023-04-02T07:30:31;102258.28;;;5.16;100.00
12247;BME280;6186;52.022;4.692;2023-04-02T07:32:56;102260.03;;;5.19;100.00
12247;BME280;6186;52.022;4.692;2023-04-02T07:35:21;102262.72;;;5.20;100.00
12247;BME280;6186;52.022;4.692;2023-04-02T07:37:47;102270.59;;;5.23;100.00
12247;BME280;6186;52.022;4.692;2023-04-02T07:40:18;102277.56;;;5.24;100.00
12247;BME280;6186;52.022;4.692;2023-04-02T07:42:44;102267.97;;;5.23;100.00
12247;BME280;6186;52.022;4.692;2023-04-02T07:45:10;102276.72;;;5.25;100.00
12247;BME280;6186;52.022;4.692;2023-04-02T07:47:35;102290.56;;;5.21;100.00
12247;BME280;6186;52.022;4.692;2023-04-02T07:50:00;102280.94;;;5.19;100.00
12247;BME280;6186;52.022;4.692;2023-04-02T07:52:26;102278.25;;;5.14;100.00
12247;BME280;6186;52.022;4.692;2023-04-02T07:54:51;102282.44;;;5.08;100.00
12247;BME280;6186;52.022;4.692;2023-04-02T07:57:16;102296.28;;;5.04;100.00
12247;BME280;6186;52.022;4.692;2023-04-02T07:59:42;102305.13;;;5.10;100.00
12247;BME280;6186;52.022;4.692;2023-04-02T08:02:20;102300.81;;;5.12;100.00
12247;BME280;6186;52.022;4.692;2023-04-02T08:04:47;102297.44;;;5.16;100.00
12247;BME280;6186;52.022;4.692;2023-04-02T08:07:12;102302.69;;;5.19;100.00
12247;BME280;6186;52.022;4.692;2023-04-02T08:09:37;102314.00;;;5.18;100.00
12247;BME280;6186;52.022;4.692;2023-04-02T08:12:03;102327.88;;;5.17;100.00
12247;BME280;6186;52.022;4.692;2023-04-02T08:14:28;102338.34;;;5.19;100.00
12247;BME280;6186;52.022;4.692;2023-04-02T08:16:54;102344.47;;;5.19;100.00
12247;BME280;6186;52.022;4.692;2023-04-02T08:19:20;102335.75;;;5.19;100.00
12247;BME280;6186;52.022;4.692;2023-04-02T08:21:46;102347.09;;;5.21;100.00
12247;BME280;6186;52.022;4.692;2023-04-02T08:24:15;102344.59;;;5.25;100.00
12247;BME280;6186;52.022;4.692;2023-04-02T08:26:43;102349.94;;;5.31;100.00
12247;BME280;6186;52.022;4.692;2023-04-02T08:29:09;102355.19;;;5.33;100.00
12247;BME280;6186;52.022;4.692;2023-04-02T08:31:34;102359.53;;;5.32;100.00
12247;BME280;6186;52.022;4.692;2023-04-02T08:33:59;102367.22;;;5.26;100.00
12247;BME280;6186;52.022;4.692;2023-04-02T08:36:28;102377.63;;;5.25;100.00
12247;BME280;6186;52.022;4.692;2023-04-02T08:38:55;102390.63;;;5.22;100.00
12247;BME280;6186;52.022;4.692;2023-04-02T08:41:22;102392.25;;;5.17;100.00
12247;BME280;6186;52.022;4.692;2023-04-02T08:46:32;102400.88;;;5.13;100.00
12247;BME280;6186;52.022;4.692;2023-04-02T08:49:07;102411.25;;;5.11;100.00
12247;BME280;6186;52.022;4.692;2023-04-02T08:51:36;102401.75;;;5.13;100.00
12247;BME280;6186;52.022;4.692;2023-04-02T08:54:17;102413.88;;;5.11;100.00
12247;BME280;6186;52.022;4.692;2023-04-02T08:57:01;102417.41;;;5.13;100.00
12247;BME280;6186;52.022;4.692;2023-04-02T08:59:39;102422.72;;;5.16;100.00
12247;BME280;6186;52.022;4.692;2023-04-02T09:04:46;102416.81;;;5.26;100.00
12247;BME280;6186;52.022;4.692;2023-04-02T09:07:13;102412.66;;;5.34;100.00
12247;BME280;6186;52.022;4.692;2023-04-02T09:09:40;102412.75;;;5.37;100.00
12247;BME280;6186;52.022;4.692;2023-04-02T09:12:16;102417.22;;;5.44;100.00
12247;BME280;6186;52.022;4.692;2023-04-02T09:15:05;102423.28;;;5.43;100.00
12247;BME280;6186;52.022;4.692;2023-04-02T09:17:30;102433.72;;;5.43;100.00
12247;BME280;6186;52.022;4.692;2023-04-02T09:20:12;102450.38;;;5.47;100.00
12247;BME280;6186;52.022;4.692;2023-04-02T09:22:38;102441.72;;;5.51;100.00
12247;BME280;6186;52.022;4.692;2023-04-02T09:25:11;102453.22;;;5.59;100.00
12247;BME280;6186;52.022;4.692;2023-04-02T09:27:38;102466.47;;;5.68;100.00
12247;BME280;6186;52.022;4.692;2023-04-02T09:32:56;102465.25;;;5.91;100.00
12247;BME280;6186;52.022;4.692;2023-04-02T09:35:24;102482.44;;;6.73;100.00
12247;BME280;6186;52.022;4.692;2023-04-02T09:40:34;102464.72;;;8.51;100.00
12247;BME280;6186;52.022;4.692;2023-04-02T09:46:01;102475.38;;;10.15;100.00
12247;BME280;6186;52.022;4.692;2023-04-02T09:51:18;102482.47;;;11.03;100.00
12247;BME280;6186;52.022;4.692;2023-04-02T09:53:46;102485.13;;;11.08;100.00
12247;BME280;6186;52.022;4.692;2023-04-02T09:59:21;102484.84;;;12.09;100.00
12247;BME280;6186;52.022;4.692;2023-04-02T10:01:57;102485.47;;;12.55;100.00
12247;BME280;6186;52.022;4.692;2023-04-02T10:04:42;102486.09;;;12.85;100.00
12247;BME280;6186;52.022;4.692;2023-04-02T10:07:33;102485.94;;;13.00;100.00
12247;BME280;6186;52.022;4.692;2023-04-02T10:10:03;102490.13;;;13.27;100.00
12247;BME280;6186;52.022;4.692;2023-04-02T10:12:41;102493.41;;;13.52;100.00
12247;BME280;6186;52.022;4.692;2023-04-02T10:15:16;102490.47;;;13.76;100.00
12247;BME280;6186;52.022;4.692;2023-04-02T10:17:48;102507.47;;;14.25;100.00
12247;BME280;6186;52.022;4.692;2023-04-02T10:20:22;102506.19;;;14.56;100.00
12247;BME280;6186;52.022;4.692;2023-04-02T10:22:48;102500.63;;;14.73;100.00
12247;BME280;6186;52.022;4.692;2023-04-02T10:25:15;102511.66;;;15.02;100.00
12247;BME280;6186;52.022;4.692;2023-04-02T10:28:26;102512.09;;;15.27;100.00
12247;BME280;6186;52.022;4.692;2023-04-02T10:30:57;102521.22;;;15.61;100.00
12247;BME280;6186;52.022;4.692;2023-04-02T10:33:32;102521.16;;;15.64;100.00
12247;BME280;6186;52.022;4.692;2023-04-02T10:38:50;102527.53;;;15.55;100.00
12247;BME280;6186;52.022;4.692;2023-04-02T10:41:27;102520.34;;;15.60;100.00
12247;BME280;6186;52.022;4.692;2023-04-02T10:54:50;102541.03;;;17.07;100.00
12247;BME280;6186;52.022;4.692;2023-04-02T10:59:58;102548.88;;;17.80;100.00
12247;BME280;6186;52.022;4.692;2023-04-02T11:05:35;102547.59;;;17.93;100.00
12247;BME280;6186;52.022;4.692;2023-04-02T11:10:31;102557.31;;;18.25;100.00
12247;BME280;6186;52.022;4.692;2023-04-02T11:13:04;102556.19;;;18.33;100.00
12247;BME280;6186;52.022;4.692;2023-04-02T11:15:34;102556.66;;;18.47;100.00
12247;BME280;6186;52.022;4.692;2023-04-02T11:18:00;102556.13;;;18.65;100.00
12247;BME280;6186;52.022;4.692;2023-04-02T11:23:18;102566.59;;;18.71;100.00
12247;BME280;6186;52.022;4.692;2023-04-02T11:25:44;102559.63;;;18.67;100.00
12247;BME280;6186;52.022;4.692;2023-04-02T11:28:26;102566.38;;;18.77;100.00
12247;BME280;6186;52.022;4.692;2023-04-02T11:30:52;102572.03;;;18.96;100.00
12247;BME280;6186;52.022;4.692;2023-04-02T11:35:56;102571.72;;;18.77;100.00
12247;BME280;6186;52.022;4.692;2023-04-02T11:43:45;102569.69;;;19.13;100.00
12247;BME280;6186;52.022;4.692;2023-04-02T11:48:42;102559.59;;;19.21;100.00
12247;BME280;6186;52.022;4.692;2023-04-02T11:53:56;102562.63;;;19.63;100.00
12247;BME280;6186;52.022;4.692;2023-04-02T11:56:32;102560.84;;;19.63;100.00
12247;BME280;6186;52.022;4.692;2023-04-02T12:10:32;102580.41;;;20.36;100.00
12247;BME280;6186;52.022;4.692;2023-04-02T12:12:58;102577.50;;;20.19;100.00
12247;BME280;6186;52.022;4.692;2023-04-02T12:15:45;102580.28;;;20.16;100.00
12247;BME280;6186;52.022;4.692;2023-04-02T12:18:19;102575.44;;;20.27;100.00
12247;BME280;6186;52.022;4.692;2023-04-02T12:20:53;102584.41;;;20.26;100.00
12247;BME280;6186;52.022;4.692;2023-04-02T12:23:26;102584.00;;;20.12;100.00
12247;BME280;6186;52.022;4.692;2023-04-02T12:25:55;102585.16;;;20.05;100.00
12247;BME280;6186;52.022;4.692;2023-04-02T12:28:21;102589.00;;;19.98;100.00
12247;BME280;6186;52.022;4.692;2023-04-02T12:30:48;102594.06;;;20.06;100.00
12247;BME280;6186;52.022;4.692;2023-04-02T12:33:32;102595.63;;;20.11;100.00
12247;BME280;6186;52.022;4.692;2023-04-02T12:35:59;102596.88;;;20.01;100.00
12247;BME280;6186;52.022;4.692;2023-04-02T12:38:28;102598.47;;;19.82;100.00
12247;BME280;6186;52.022;4.692;2023-04-02T12:41:02;102597.00;;;19.47;100.00
12247;BME280;6186;52.022;4.692;2023-04-02T12:43:31;102591.25;;;19.07;100.00
12247;BME280;6186;52.022;4.692;2023-04-02T12:45:59;102589.16;;;18.61;100.00
12247;BME280;6186;52.022;4.692;2023-04-02T12:48:26;102584.69;;;18.31;100.00
12247;BME280;6186;52.022;4.692;2023-04-02T12:50:54;102582.97;;;17.98;100.00
12247;BME280;6186;52.022;4.692;2023-04-02T12:53:27;102596.50;;;17.92;100.00
12247;BME280;6186;52.022;4.692;2023-04-02T12:55:53;102591.75;;;17.71;100.00
12247;BME280;6186;52.022;4.692;2023-04-02T12:58:39;102593.50;;;17.37;100.00
12247;BME280;6186;52.022;4.692;2023-04-02T13:03:37;102601.63;;;16.96;100.00
12247;BME280;6186;52.022;4.692;2023-04-02T13:06:03;102605.47;;;16.82;100.00
12247;BME280;6186;52.022;4.692;2023-04-02T13:08:40;102604.56;;;16.83;100.00
12247;BME280;6186;52.022;4.692;2023-04-02T13:11:05;102608.16;;;16.81;100.00
12247;BME280;6186;52.022;4.692;2023-04-02T13:13:36;102606.56;;;16.74;100.00
12247;BME280;6186;52.022;4.692;2023-04-02T13:18:35;102614.50;;;16.75;100.00
12247;BME280;6186;52.022;4.692;2023-04-02T13:23:40;102626.94;;;16.73;100.00
12247;BME280;6186;52.022;4.692;2023-04-02T13:26:26;102619.44;;;16.54;100.00
12247;BME280;6186;52.022;4.692;2023-04-02T13:31:36;102608.50;;;16.23;100.00
12247;BME280;6186;52.022;4.692;2023-04-02T13:34:01;102627.88;;;16.28;100.00
12247;BME280;6186;52.022;4.692;2023-04-02T13:36:26;102628.13;;;16.18;100.00
12247;BME280;6186;52.022;4.692;2023-04-02T13:38:52;102626.59;;;16.03;100.00
12247;BME280;6186;52.022;4.692;2023-04-02T13:41:23;102634.94;;;15.85;100.00
12247;BME280;6186;52.022;4.692;2023-04-02T13:43:49;102628.97;;;15.71;100.00
12247;BME280;6186;52.022;4.692;2023-04-02T13:46:27;102624.19;;;15.44;100.00
12247;BME280;6186;52.022;4.692;2023-04-02T13:48:54;102635.84;;;15.29;100.00
12247;BME280;6186;52.022;4.692;2023-04-02T13:51:27;102630.75;;;15.19;100.00
12247;BME280;6186;52.022;4.692;2023-04-02T13:53:56;102633.53;;;15.09;100.00
12247;BME280;6186;52.022;4.692;2023-04-02T13:56:22;102631.00;;;15.02;100.00
12247;BME280;6186;52.022;4.692;2023-04-02T13:58:47;102635.28;;;15.10;100.00
12247;BME280;6186;52.022;4.692;2023-04-02T14:01:13;102638.84;;;15.09;100.00
12247;BME280;6186;52.022;4.692;2023-04-02T14:03:40;102640.59;;;15.09;100.00
12247;BME280;6186;52.022;4.692;2023-04-02T14:06:11;102646.81;;;15.06;100.00
12247;BME280;6186;52.022;4.692;2023-04-02T14:11:18;102655.00;;;14.91;100.00
12247;BME280;6186;52.022;4.692;2023-04-02T14:24:17;102668.69;;;14.60;99.23
12247;BME280;6186;52.022;4.692;2023-04-02T14:32:37;102671.56;;;14.43;98.82
12247;BME280;6186;52.022;4.692;2023-04-02T14:37:55;102678.78;;;14.29;98.22
12247;BME280;6186;52.022;4.692;2023-04-02T14:40:48;102666.53;;;14.16;97.67
12247;BME280;6186;52.022;4.692;2023-04-02T14:43:43;102681.56;;;14.14;97.85
12247;BME280;6186;52.022;4.692;2023-04-02T14:46:09;102671.03;;;14.09;98.25
12247;BME280;6186;52.022;4.692;2023-04-02T14:48:45;102676.25;;;14.14;98.02
12247;BME280;6186;52.022;4.692;2023-04-02T14:51:19;102686.97;;;14.05;97.44
12247;BME280;6186;52.022;4.692;2023-04-02T14:56:37;102690.53;;;13.99;97.28
12247;BME280;6186;52.022;4.692;2023-04-02T14:59:16;102698.53;;;13.95;96.91
12247;BME280;6186;52.022;4.692;2023-04-02T15:01:46;102694.22;;;13.82;95.47
12247;BME280;6186;52.022;4.692;2023-04-02T15:04:17;102698.81;;;13.62;94.94
12247;BME280;6186;52.022;4.692;2023-04-02T15:06:49;102702.44;;;13.55;94.68
12247;BME280;6186;52.022;4.692;2023-04-02T15:09:23;102702.44;;;13.52;94.95
12247;BME280;6186;52.022;4.692;2023-04-02T15:11:52;102704.25;;;13.47;94.65
12247;BME280;6186;52.022;4.692;2023-04-02T15:14:23;102700.69;;;13.48;95.04
12247;BME280;6186;52.022;4.692;2023-04-02T15:16:51;102700.69;;;13.51;95.25
12247;BME280;6186;52.022;4.692;2023-04-02T15:19:17;102700.69;;;13.51;95.19
12247;BME280;6186;52.022;4.692;2023-04-02T15:30:11;102714.81;;;13.51;94.59
12247;BME280;6186;52.022;4.692;2023-04-02T15:32:39;102708.66;;;13.45;94.62
12247;BME280;6186;52.022;4.692;2023-04-02T15:35:17;102723.69;;;13.40;93.78
12247;BME280;6186;52.022;4.692;2023-04-02T15:38:11;102719.31;;;13.33;94.03
12247;BME280;6186;52.022;4.692;2023-04-02T15:46:11;102718.50;;;13.21;93.63
12247;BME280;6186;52.022;4.692;2023-04-02T15:51:34;102725.63;;;13.10;92.88
12247;BME280;6186;52.022;4.692;2023-04-02T15:54:25;102716.84;;;12.96;92.15
12247;BME280;6186;52.022;4.692;2023-04-02T16:02:38;102721.31;;;12.84;91.85
12247;BME280;6186;52.022;4.692;2023-04-02T16:05:18;102723.09;;;12.76;91.61
12247;BME280;6186;52.022;4.692;2023-04-02T16:08:05;102730.19;;;12.72;91.98
12247;BME280;6186;52.022;4.692;2023-04-02T16:10:36;102738.13;;;12.75;92.05
12247;BME280;6186;52.022;4.692;2023-04-02T16:16:00;102738.09;;;12.72;91.98
12247;BME280;6186;52.022;4.692;2023-04-02T16:18:54;102744.25;;;12.76;92.06
12247;BME280;6186;52.022;4.692;2023-04-02T16:21:25;102741.63;;;12.68;91.29
12247;BME280;6186;52.022;4.692;2023-04-02T16:23:52;102731.19;;;12.41;90.29
12247;BME280;6186;52.022;4.692;2023-04-02T16:26:46;102750.53;;;12.43;90.31
12247;BME280;6186;52.022;4.692;2023-04-02T16:35:46;102761.13;;;12.31;90.47
12247;BME280;6186;52.022;4.692;2023-04-02T16:38:23;102756.72;;;12.27;90.05
12247;BME280;6186;52.022;4.692;2023-04-02T16:43:55;102769.94;;;12.24;90.10
12247;BME280;6186;52.022;4.692;2023-04-02T16:46:38;102773.44;;;12.21;89.88